createdAt,value
2019-05-09T00:00:46.256Z,7.40
2019-05-09T00:03:15.480Z,7.40
2019-05-09T00:05:44.737Z,7.30
2019-05-09T00:08:14.159Z,7.30
2019-05-09T00:10:44.899Z,7.30
2019-05-09T00:13:14.436Z,7.30
2019-05-09T00:15:43.878Z,7.30
2019-05-09T00:18:14.237Z,7.30
2019-05-09T00:20:49.168Z,7.20
2019-05-09T00:23:18.403Z,7.20
2019-05-09T00:25:47.670Z,7.20
2019-05-09T00:28:16.970Z,7.20
2019-05-09T00:31:09.818Z,7.20
2019-05-09T00:33:39.755Z,7.30
2019-05-09T00:36:09.014Z,7.20
2019-05-09T00:38:43.330Z,7.20
2019-05-09T00:41:14.036Z,7.20
2019-05-09T00:43:47.218Z,7.20
2019-05-09T00:46:23.641Z,7.20
2019-05-09T00:49:07.610Z,7.20
2019-05-09T00:51:36.911Z,7.20
2019-05-09T00:54:06.544Z,7.10
2019-05-09T00:56:35.909Z,7.20
2019-05-09T00:59:05.242Z,7.10
2019-05-09T01:01:34.651Z,7.10
2019-05-09T01:04:04.507Z,7.10
2019-05-09T01:06:34.209Z,7.10
2019-05-09T01:09:05.420Z,7.10
2019-05-09T01:11:34.950Z,7.10
2019-05-09T01:14:04.722Z,7.10
2019-05-09T01:16:34.079Z,7.10
2019-05-09T01:19:03.800Z,7.10
2019-05-09T01:21:33.505Z,7.10
2019-05-09T01:24:03.377Z,7.10
2019-05-09T01:26:33.441Z,7.00
2019-05-09T01:29:04.385Z,7.00
2019-05-09T01:31:34.025Z,7.00
2019-05-09T01:34:28.213Z,7.00
2019-05-09T01:37:04.222Z,7.00
2019-05-09T01:39:34.264Z,7.00
2019-05-09T01:42:03.599Z,7.00
2019-05-09T01:44:33.542Z,7.00
2019-05-09T01:47:03.796Z,7.00
2019-05-09T01:49:34.103Z,6.90
2019-05-09T01:52:03.809Z,7.00
2019-05-09T01:54:34.207Z,6.90
2019-05-09T01:57:03.660Z,6.90
2019-05-09T01:59:34.021Z,7.00
2019-05-09T02:02:08.090Z,6.90
2019-05-09T02:04:35.043Z,6.90
2019-05-09T02:07:04.488Z,6.90
2019-05-09T02:09:34.472Z,6.90
2019-05-09T02:12:04.289Z,6.90
2019-05-09T02:14:40.322Z,6.90
2019-05-09T02:17:20.210Z,6.90
2019-05-09T02:19:49.470Z,6.90
2019-05-09T02:22:34.649Z,6.90
2019-05-09T02:25:06.715Z,6.90
2019-05-09T02:27:36.090Z,6.90
2019-05-09T02:30:06.934Z,6.90
2019-05-09T02:32:36.479Z,6.90
2019-05-09T02:35:07.222Z,6.90
2019-05-09T02:37:38.941Z,6.80
2019-05-09T02:40:09.680Z,6.90
2019-05-09T02:42:39.769Z,7.00
2019-05-09T02:45:09.983Z,7.00
2019-05-09T02:47:39.317Z,7.00
2019-05-09T02:50:09.759Z,7.00
2019-05-09T02:52:39.755Z,7.00
2019-05-09T02:55:10.706Z,7.10
2019-05-09T02:57:40.374Z,7.10
2019-05-09T03:00:32.998Z,7.10
2019-05-09T03:03:19.805Z,7.10
2019-05-09T03:05:48.866Z,7.10
2019-05-09T03:08:19.250Z,7.10
2019-05-09T03:10:49.402Z,7.10
2019-05-09T03:13:19.304Z,7.10
2019-05-09T03:15:50.824Z,7.10
2019-05-09T03:18:20.177Z,7.20
2019-05-09T03:21:11.771Z,7.20
2019-05-09T03:23:41.094Z,7.10
2019-05-09T03:26:12.006Z,7.20
2019-05-09T03:29:03.486Z,7.10
2019-05-09T03:31:33.458Z,7.20
2019-05-09T03:34:02.777Z,7.20
2019-05-09T03:36:32.123Z,7.20
2019-05-09T03:39:01.389Z,7.10
2019-05-09T03:41:30.658Z,7.20
2019-05-09T03:43:59.944Z,7.10
2019-05-09T03:46:51.315Z,7.20
2019-05-09T03:49:21.481Z,7.20
2019-05-09T03:51:50.830Z,7.20
2019-05-09T03:54:20.080Z,7.20
2019-05-09T03:56:57.138Z,7.20
2019-05-09T03:59:27.827Z,7.20
2019-05-09T04:01:59.067Z,7.30
2019-05-09T04:04:28.225Z,7.30
2019-05-09T04:06:58.158Z,7.30
2019-05-09T04:09:27.623Z,7.30
2019-05-09T04:11:59.878Z,7.30
2019-05-09T04:14:29.382Z,7.30
2019-05-09T04:16:58.732Z,7.30
2019-05-09T04:19:28.028Z,7.40
2019-05-09T04:21:57.675Z,7.40
2019-05-09T04:24:28.791Z,7.40
2019-05-09T04:27:17.790Z,7.40
2019-05-09T04:29:48.396Z,7.40
2019-05-09T04:32:18.332Z,7.50
2019-05-09T04:34:47.870Z,7.50
2019-05-09T04:37:18.037Z,7.60
2019-05-09T04:39:47.799Z,7.70
2019-05-09T04:42:18.535Z,7.80
2019-05-09T04:44:58.881Z,7.80
2019-05-09T04:47:27.944Z,7.80
2019-05-09T04:49:58.381Z,7.80
2019-05-09T04:52:27.998Z,7.80
2019-05-09T04:54:57.660Z,7.80
2019-05-09T04:57:27.868Z,7.80
2019-05-09T04:59:57.597Z,7.90
2019-05-09T05:02:39.129Z,7.80
2019-05-09T05:05:08.607Z,7.80
2019-05-09T05:07:37.939Z,7.80
2019-05-09T05:10:08.978Z,7.90
2019-05-09T05:12:38.691Z,7.90
2019-05-09T05:15:08.507Z,7.80
2019-05-09T05:17:37.901Z,7.70
2019-05-09T05:20:10.051Z,7.70
2019-05-09T05:22:47.966Z,7.80
2019-05-09T05:25:17.851Z,7.80
2019-05-09T05:27:47.614Z,7.90
2019-05-09T05:30:18.035Z,7.90
2019-05-09T05:32:53.852Z,8.00
2019-05-09T05:35:37.556Z,8.10
2019-05-09T05:38:08.503Z,8.20
2019-05-09T05:40:45.358Z,8.30
2019-05-09T05:43:09.419Z,8.30
2019-05-09T05:45:49.004Z,8.40
2019-05-09T05:48:22.786Z,8.40
2019-05-09T05:50:52.059Z,8.40
2019-05-09T05:53:21.407Z,8.40
2019-05-09T05:55:52.761Z,8.40
2019-05-09T05:58:21.729Z,8.50
2019-05-09T06:00:51.074Z,8.50
2019-05-09T06:03:20.424Z,8.50
2019-05-09T06:05:51.827Z,8.50
2019-05-09T06:08:20.770Z,8.60
2019-05-09T06:10:50.118Z,8.60
2019-05-09T06:13:19.450Z,8.60
2019-05-09T06:15:48.859Z,8.60
2019-05-09T06:18:18.490Z,8.60
2019-05-09T06:20:48.630Z,8.60
2019-05-09T06:23:18.101Z,8.60
2019-05-09T06:25:48.420Z,8.60
2019-05-09T06:28:18.375Z,8.60
2019-05-09T06:30:47.829Z,8.60
2019-05-09T06:33:18.063Z,8.50
2019-05-09T06:35:48.120Z,8.50
2019-05-09T06:38:18.706Z,8.50
2019-05-09T06:40:48.271Z,8.50
2019-05-09T06:43:19.370Z,8.50
2019-05-09T06:46:08.086Z,8.50
2019-05-09T06:48:37.976Z,8.60
2019-05-09T06:51:07.488Z,8.50
2019-05-09T06:53:38.026Z,8.50
2019-05-09T06:56:07.658Z,8.50
2019-05-09T06:58:38.345Z,8.60
2019-05-09T07:01:14.434Z,8.60
2019-05-09T07:03:44.048Z,8.50
2019-05-09T07:06:25.021Z,8.50
2019-05-09T07:09:17.449Z,8.50
2019-05-09T07:11:48.649Z,8.50
2019-05-09T07:14:38.197Z,8.50
2019-05-09T07:17:07.963Z,8.60
2019-05-09T07:19:38.355Z,8.50
2019-05-09T07:22:29.726Z,8.50
2019-05-09T07:25:11.366Z,8.60
2019-05-09T07:27:40.840Z,8.70
2019-05-09T07:30:24.948Z,8.70
2019-05-09T07:33:00.905Z,8.80
2019-05-09T07:35:30.235Z,8.90
2019-05-09T07:37:59.522Z,8.90
2019-05-09T07:40:30.650Z,9.00
2019-05-09T07:42:59.828Z,9.00
2019-05-09T07:45:29.096Z,9.00
2019-05-09T07:47:58.594Z,9.00
2019-05-09T07:50:27.962Z,9.00
2019-05-09T07:52:58.247Z,8.90
2019-05-09T07:55:27.799Z,8.80
2019-05-09T07:57:59.014Z,8.90
2019-05-09T08:00:34.743Z,9.00
2019-05-09T08:03:04.148Z,9.00
2019-05-09T08:05:33.445Z,9.00
2019-05-09T08:08:04.164Z,9.00
2019-05-09T08:10:33.563Z,8.90
2019-05-09T08:13:02.932Z,8.90
2019-05-09T08:15:32.261Z,8.90
2019-05-09T08:18:01.676Z,8.90
2019-05-09T08:20:31.007Z,8.90
2019-05-09T08:23:02.232Z,8.90
2019-05-09T08:25:31.351Z,8.90
2019-05-09T08:28:00.708Z,9.00
2019-05-09T08:30:35.923Z,9.00
2019-05-09T08:33:00.952Z,9.10
2019-05-09T08:35:30.234Z,9.10
2019-05-09T08:37:59.560Z,9.10
2019-05-09T08:40:28.800Z,9.10
2019-05-09T08:42:59.048Z,9.10
2019-05-09T08:45:31.211Z,9.10
2019-05-09T08:47:59.476Z,9.00
2019-05-09T08:50:48.286Z,9.00
2019-05-09T08:53:18.838Z,9.00
2019-05-09T08:55:48.376Z,9.00
2019-05-09T08:58:19.732Z,9.00
2019-05-09T09:00:49.241Z,9.00
2019-05-09T09:03:18.678Z,9.00
2019-05-09T09:05:48.621Z,9.00
2019-05-09T09:08:18.478Z,8.90
2019-05-09T09:10:48.790Z,8.90
2019-05-09T09:13:18.383Z,8.90
2019-05-09T09:16:05.579Z,8.90
2019-05-09T09:18:18.704Z,8.90
2019-05-09T09:20:48.671Z,8.90
2019-05-09T09:23:18.280Z,8.90
2019-05-09T09:25:48.699Z,8.90
2019-05-09T09:28:18.453Z,8.90
2019-05-09T09:30:48.589Z,9.00
2019-05-09T09:33:18.046Z,9.00
2019-05-09T09:35:48.908Z,9.10
2019-05-09T09:38:18.514Z,9.10
2019-05-09T09:40:47.957Z,9.10
2019-05-09T09:43:17.780Z,9.00
2019-05-09T09:45:48.054Z,8.90
2019-05-09T09:48:18.284Z,8.80
2019-05-09T09:50:51.346Z,8.80
2019-05-09T09:53:18.640Z,8.80
2019-05-09T09:55:48.003Z,8.80
2019-05-09T09:58:18.935Z,8.80
2019-05-09T10:01:18.070Z,8.80
2019-05-09T10:03:49.336Z,8.80
2019-05-09T10:06:18.799Z,8.70
2019-05-09T10:08:48.980Z,8.70
2019-05-09T10:11:18.429Z,8.70
2019-05-09T10:13:50.137Z,8.70
2019-05-09T10:16:32.815Z,8.70
2019-05-09T10:19:13.208Z,8.80
2019-05-09T10:21:53.133Z,8.70
2019-05-09T10:24:22.404Z,8.80
2019-05-09T10:27:09.125Z,8.80
2019-05-09T10:29:38.994Z,8.80
2019-05-09T10:32:18.441Z,8.70
2019-05-09T10:34:48.875Z,8.80
2019-05-09T10:37:18.700Z,8.80
2019-05-09T10:39:48.974Z,8.80
2019-05-09T10:42:31.276Z,8.80
2019-05-09T10:45:19.601Z,8.80
2019-05-09T10:47:48.844Z,8.90
2019-05-09T10:50:18.483Z,8.90
2019-05-09T10:52:48.258Z,8.90
2019-05-09T10:55:17.997Z,8.90
2019-05-09T10:57:52.248Z,9.00
2019-05-09T11:00:18.524Z,9.00
2019-05-09T11:02:48.327Z,9.00
2019-05-09T11:05:18.509Z,9.00
2019-05-09T11:07:49.543Z,9.10
2019-05-09T11:10:25.632Z,9.20
2019-05-09T11:12:50.047Z,9.30
2019-05-09T11:15:19.310Z,9.40
2019-05-09T11:17:48.674Z,9.40
2019-05-09T11:20:19.432Z,9.50
2019-05-09T11:22:49.003Z,9.60
2019-05-09T11:25:18.339Z,9.70
2019-05-09T11:27:48.663Z,9.70
2019-05-09T11:30:18.741Z,9.70
2019-05-09T11:32:48.185Z,9.80
2019-05-09T11:35:17.735Z,9.80
2019-05-09T11:37:48.027Z,9.80
2019-05-09T11:40:17.425Z,9.80
2019-05-09T11:42:48.287Z,9.80
2019-05-09T11:45:19.174Z,9.80
2019-05-09T11:47:48.452Z,9.80
2019-05-09T11:50:22.855Z,9.80
2019-05-09T11:52:49.169Z,9.90
2019-05-09T11:55:29.825Z,9.80
2019-05-09T11:57:53.106Z,9.80
2019-05-09T12:00:22.531Z,9.80
2019-05-09T12:02:51.787Z,9.80
2019-05-09T12:05:21.141Z,9.70
2019-05-09T12:07:50.512Z,9.80
2019-05-09T12:10:19.788Z,9.80
2019-05-09T12:12:49.017Z,9.80
2019-05-09T12:15:18.362Z,9.80
2019-05-09T12:17:57.589Z,9.80
2019-05-09T12:20:18.678Z,9.80
2019-05-09T12:22:48.535Z,9.80
2019-05-09T12:25:18.438Z,9.80
2019-05-09T12:27:48.717Z,9.90
2019-05-09T12:30:18.927Z,9.80
2019-05-09T12:32:48.397Z,9.90
2019-05-09T12:35:19.087Z,9.80
2019-05-09T12:37:48.544Z,9.80
2019-05-09T12:40:20.019Z,9.90
2019-05-09T12:42:50.355Z,9.80
2019-05-09T12:45:19.781Z,9.80
2019-05-09T12:47:49.140Z,9.90
2019-05-09T12:50:18.772Z,9.90
2019-05-09T12:52:48.860Z,10.00
2019-05-09T12:55:18.206Z,9.90
2019-05-09T12:57:48.912Z,9.80
2019-05-09T13:00:18.845Z,9.90
2019-05-09T13:02:48.214Z,9.80
2019-05-09T13:05:18.102Z,9.80
2019-05-09T13:07:48.218Z,9.90
2019-05-09T13:10:19.389Z,10.20
2019-05-09T13:12:48.810Z,10.20
2019-05-09T13:15:20.784Z,10.20
2019-05-09T13:17:51.031Z,10.10
2019-05-09T13:20:20.357Z,10.10
2019-05-09T13:22:52.960Z,10.00
2019-05-09T13:25:22.896Z,10.00
2019-05-09T13:27:53.091Z,10.00
2019-05-09T13:30:22.517Z,10.00
2019-05-09T13:32:51.859Z,10.00
2019-05-09T13:35:21.321Z,10.00
2019-05-09T13:37:50.642Z,10.10
2019-05-09T13:40:19.956Z,10.00
2019-05-09T13:42:49.678Z,10.00
2019-05-09T13:45:19.022Z,10.10
2019-05-09T13:47:49.678Z,10.10
2019-05-09T13:50:19.218Z,10.20
2019-05-09T13:52:48.508Z,10.20
2019-05-09T13:55:18.104Z,10.30
2019-05-09T13:57:48.670Z,10.40
2019-05-09T14:00:18.880Z,10.40
2019-05-09T14:02:48.760Z,10.40
2019-05-09T14:05:19.260Z,10.50
2019-05-09T14:07:50.020Z,10.60
2019-05-09T14:10:19.629Z,10.70
2019-05-09T14:13:04.543Z,10.70
2019-05-09T14:15:19.816Z,10.80
2019-05-09T14:17:53.492Z,10.90
2019-05-09T14:20:20.093Z,11.00
2019-05-09T14:22:49.394Z,11.10
2019-05-09T14:25:19.496Z,11.30
2019-05-09T14:27:52.261Z,11.60
2019-05-09T14:30:20.073Z,12.00
2019-05-09T14:32:49.954Z,12.40
2019-05-09T14:35:19.480Z,12.90
2019-05-09T14:37:48.894Z,12.90
2019-05-09T14:40:18.389Z,12.90
2019-05-09T14:42:49.453Z,12.70
2019-05-09T14:45:18.729Z,12.80
2019-05-09T14:47:47.993Z,12.90
2019-05-09T14:50:18.116Z,13.10
2019-05-09T14:52:49.287Z,13.30
2019-05-09T14:55:18.577Z,13.50
2019-05-09T14:57:48.129Z,13.40
2019-05-09T15:00:18.805Z,13.30
2019-05-09T15:02:49.023Z,13.30
2019-05-09T15:05:18.964Z,13.40
2019-05-09T15:07:48.453Z,13.40
2019-05-09T15:10:18.765Z,13.20
2019-05-09T15:12:48.735Z,13.20
2019-05-09T15:15:18.980Z,13.30
2019-05-09T15:17:49.208Z,13.50
2019-05-09T15:20:19.216Z,13.60
2019-05-09T15:22:48.548Z,13.40
2019-05-09T15:25:19.350Z,13.30
2019-05-09T15:27:48.817Z,13.20
2019-05-09T15:30:18.889Z,13.10
2019-05-09T15:32:51.657Z,13.10
2019-05-09T15:35:19.389Z,13.20
2019-05-09T15:37:48.767Z,13.00
2019-05-09T15:40:18.152Z,13.10
2019-05-09T15:42:48.040Z,13.00
2019-05-09T15:45:18.351Z,12.80
2019-05-09T15:47:48.275Z,12.70
2019-05-09T15:50:22.780Z,12.70
2019-05-09T15:52:48.956Z,12.70
2019-05-09T15:55:18.188Z,12.80
2019-05-09T15:57:48.580Z,12.70
2019-05-09T16:00:19.264Z,12.60
2019-05-09T16:02:48.790Z,12.60
2019-05-09T16:05:18.289Z,12.60
2019-05-09T16:07:48.236Z,12.60
2019-05-09T16:10:18.130Z,12.50
2019-05-09T16:12:48.731Z,12.50
2019-05-09T16:15:18.426Z,12.50
2019-05-09T16:17:48.593Z,12.40
2019-05-09T16:20:36.064Z,12.30
2019-05-09T16:22:49.234Z,12.40
2019-05-09T16:25:18.947Z,12.30
2019-05-09T16:27:48.629Z,12.20
2019-05-09T16:30:18.163Z,12.10
2019-05-09T16:32:48.064Z,12.10
2019-05-09T16:35:18.325Z,12.00
2019-05-09T16:37:58.217Z,12.00
2019-05-09T16:40:18.659Z,11.90
2019-05-09T16:42:47.931Z,11.90
2019-05-09T16:45:18.187Z,11.90
2019-05-09T16:47:48.561Z,12.10
2019-05-09T16:50:18.746Z,12.40
2019-05-09T16:52:48.826Z,12.80
2019-05-09T16:55:23.072Z,13.10
2019-05-09T16:57:52.348Z,13.30
2019-05-09T17:00:33.369Z,13.10
2019-05-09T17:03:02.635Z,13.10
2019-05-09T17:05:31.871Z,13.20
2019-05-09T17:08:01.368Z,13.30
2019-05-09T17:10:30.728Z,13.30
2019-05-09T17:13:00.222Z,13.20
2019-05-09T17:15:29.575Z,13.10
2019-05-09T17:17:58.793Z,12.90
2019-05-09T17:20:38.208Z,12.90
2019-05-09T17:23:15.079Z,13.00
2019-05-09T17:25:42.648Z,13.10
2019-05-09T17:28:11.914Z,13.00
2019-05-09T17:30:41.231Z,12.90
2019-05-09T17:33:10.561Z,12.80
2019-05-09T17:35:40.128Z,12.80
2019-05-09T17:38:09.419Z,12.60
2019-05-09T17:40:39.336Z,12.50
2019-05-09T17:43:08.758Z,12.30
2019-05-09T17:45:41.849Z,12.30
2019-05-09T17:48:09.625Z,12.20
2019-05-09T17:50:38.795Z,12.00
2019-05-09T17:53:08.753Z,12.00
2019-05-09T17:55:38.395Z,11.90
2019-05-09T17:58:08.759Z,12.10
2019-05-09T18:00:38.396Z,12.10
2019-05-09T18:03:07.663Z,12.00
2019-05-09T18:05:39.023Z,12.10
2019-05-09T18:08:08.222Z,12.10
2019-05-09T18:10:38.157Z,12.10
2019-05-09T18:13:08.182Z,12.20
2019-05-09T18:15:38.168Z,12.40
2019-05-09T18:18:07.473Z,12.60
2019-05-09T18:20:37.965Z,12.90
2019-05-09T18:23:08.295Z,12.80
2019-05-09T18:25:38.008Z,12.90
2019-05-09T18:28:07.762Z,12.70
2019-05-09T18:30:38.830Z,12.70
2019-05-09T18:33:27.252Z,12.50
2019-05-09T18:35:57.614Z,12.40
2019-05-09T18:38:30.851Z,12.30
2019-05-09T18:41:00.244Z,12.20
2019-05-09T18:43:29.685Z,12.10
2019-05-09T18:45:58.955Z,11.80
2019-05-09T18:48:28.291Z,11.60
2019-05-09T18:50:57.704Z,11.40
2019-05-09T18:53:27.110Z,11.30
2019-05-09T18:55:56.394Z,11.20
2019-05-09T18:58:25.770Z,11.10
2019-05-09T19:00:55.068Z,11.00
2019-05-09T19:03:24.405Z,11.00
2019-05-09T19:05:53.805Z,11.00
2019-05-09T19:08:23.146Z,11.00
2019-05-09T19:10:52.610Z,11.00
2019-05-09T19:13:21.862Z,11.10
2019-05-09T19:15:58.831Z,11.00
2019-05-09T19:18:38.624Z,11.10
2019-05-09T19:21:12.714Z,11.00
2019-05-09T19:23:41.979Z,11.10
2019-05-09T19:26:30.374Z,11.00
2019-05-09T19:28:59.663Z,11.00
2019-05-09T19:31:29.676Z,11.00
2019-05-09T19:33:59.726Z,11.00
2019-05-09T19:36:29.039Z,11.00
2019-05-09T19:38:58.395Z,11.00
2019-05-09T19:41:27.754Z,11.00
2019-05-09T19:43:57.078Z,10.90
2019-05-09T19:46:26.407Z,10.90
2019-05-09T19:48:55.644Z,10.90
2019-05-09T19:51:24.960Z,10.80
2019-05-09T19:53:54.292Z,10.80
2019-05-09T19:56:23.580Z,10.70
2019-05-09T19:58:52.921Z,10.70
2019-05-09T20:01:22.238Z,10.60
2019-05-09T20:03:51.586Z,10.60
2019-05-09T20:06:21.155Z,10.50
2019-05-09T20:08:50.459Z,10.50
2019-05-09T20:11:36.863Z,10.50
2019-05-09T20:14:26.942Z,10.40
2019-05-09T20:16:56.811Z,10.40
2019-05-09T20:19:26.086Z,10.30
2019-05-09T20:21:55.423Z,10.20
2019-05-09T20:24:25.157Z,10.10
2019-05-09T20:26:54.644Z,10.00
2019-05-09T20:29:24.191Z,10.00
2019-05-09T20:31:53.531Z,9.90
2019-05-09T20:34:22.860Z,9.80
2019-05-09T20:36:52.331Z,9.80
2019-05-09T20:39:22.277Z,9.70
2019-05-09T20:41:51.804Z,9.60
2019-05-09T20:44:21.331Z,9.60
2019-05-09T20:46:50.889Z,9.60
2019-05-09T20:49:20.415Z,9.60
2019-05-09T20:51:49.954Z,9.60
2019-05-09T20:54:21.432Z,9.60
2019-05-09T20:56:50.915Z,9.50
2019-05-09T20:59:21.509Z,9.50
2019-05-09T21:01:51.183Z,9.50
2019-05-09T21:04:21.469Z,9.50
2019-05-09T21:06:51.700Z,9.50
2019-05-09T21:09:21.308Z,9.50
2019-05-09T21:11:52.349Z,9.50
2019-05-09T21:14:21.793Z,9.40
2019-05-09T21:16:51.369Z,9.40
2019-05-09T21:19:20.927Z,9.40
2019-05-09T21:21:50.613Z,9.30
2019-05-09T21:24:20.161Z,9.30
2019-05-09T21:26:49.651Z,9.30
2019-05-09T21:29:19.124Z,9.30
2019-05-09T21:31:48.659Z,9.30
2019-05-09T21:34:18.131Z,9.30
2019-05-09T21:36:47.395Z,9.30
2019-05-09T21:39:16.713Z,9.30
2019-05-09T21:41:45.989Z,9.30
2019-05-09T21:44:15.313Z,9.30
2019-05-09T21:46:44.618Z,9.30
2019-05-09T21:49:13.860Z,9.30
2019-05-09T21:51:43.158Z,9.20
2019-05-09T21:54:12.419Z,9.20
2019-05-09T21:56:41.687Z,9.20
2019-05-09T21:59:10.948Z,9.20
2019-05-09T22:01:41.084Z,9.20
2019-05-09T22:04:10.466Z,9.20
2019-05-09T22:06:39.743Z,9.20
2019-05-09T22:09:10.109Z,9.20
2019-05-09T22:11:39.539Z,9.20
2019-05-09T22:14:08.787Z,9.20
2019-05-09T22:16:38.058Z,9.20
2019-05-09T22:19:07.391Z,9.20
2019-05-09T22:21:36.703Z,9.20
2019-05-09T22:24:05.976Z,9.20
2019-05-09T22:26:35.312Z,9.20
2019-05-09T22:29:04.592Z,9.20
2019-05-09T22:31:33.886Z,9.20
2019-05-09T22:34:03.157Z,9.20
2019-05-09T22:36:32.391Z,9.20
2019-05-09T22:39:01.651Z,9.20
2019-05-09T22:41:30.921Z,9.20
2019-05-09T22:44:00.255Z,9.30
2019-05-09T22:46:29.492Z,9.30
2019-05-09T22:48:58.753Z,9.30
2019-05-09T22:51:28.127Z,9.30
2019-05-09T22:54:11.714Z,9.20
2019-05-09T22:56:28.520Z,9.20
2019-05-09T22:58:57.716Z,9.20
2019-05-09T23:01:27.107Z,9.20
2019-05-09T23:03:56.385Z,9.20
2019-05-09T23:06:25.620Z,9.20
2019-05-09T23:08:54.903Z,9.00
2019-05-09T23:11:24.223Z,9.00
2019-05-09T23:13:53.590Z,8.90
2019-05-09T23:16:24.347Z,8.80
2019-05-09T23:18:58.990Z,8.80
2019-05-09T23:21:29.408Z,8.80
2019-05-09T23:24:07.024Z,8.70
2019-05-09T23:26:36.323Z,8.70
2019-05-09T23:29:05.599Z,8.60
2019-05-09T23:31:48.487Z,8.60
2019-05-09T23:34:17.824Z,8.60
2019-05-09T23:36:47.076Z,8.60
2019-05-09T23:39:22.855Z,8.60
2019-05-09T23:41:53.113Z,8.60
2019-05-09T23:44:22.378Z,8.60
2019-05-09T23:46:51.743Z,8.60
2019-05-09T23:49:21.110Z,8.60
2019-05-09T23:51:50.453Z,8.60
2019-05-09T23:54:47.798Z,8.60
2019-05-09T23:57:28.471Z,8.60
